Stations météo

réclame
Mon MeteoGroup
Buzenol, Belgique (6484): Température de l'air & dewpoint: 15.10.2018 17:00:00 - 21.10.2018 17:00:00 (CEST)Buzenol, Belgique (6484): Vitesse du vent & gusts: 15.10.2018 17:00:00 - 21.10.2018 17:00:00 (CEST)Buzenol, Belgique (6484): Direction du vent: 15.10.2018 17:00:00 - 21.10.2018 17:00:00 (CEST)Buzenol, Belgique (6484): reduced air pressure: 15.10.2018 17:00:00 - 21.10.2018 17:00:00 (CEST)Buzenol, Belgique (6484): Ensoleillement: 15.10.2018 17:00:00 - 21.10.2018 17:00:00 (CEST)Buzenol, Belgique (6484): Quantités de précipitations: 15.10.2018 17:00:00 - 21.10.2018 17:00:00 (CEST)
Date & Time tt [°C] td [°C] ff [km/h] ff [knt] fx [km/h] fx [knt] dd ppp [hPa] sd [min] rr [mm]
21.10.2018 17:00:00 15,5 4,1 12 7 16 9 ENE 1026,2 60 0,0
21.10.2018 16:00:00 16,4 2,9 9 5 18 10 SE 1026,5 60 0,0
21.10.2018 15:00:00 15,8 3,2 8 4 21 12 S 1027,0 60 0,0
21.10.2018 14:00:00 14,6 4,2 11 6 23 12 S 1027,8 60 0,0
21.10.2018 13:00:00 13,7 3,5 15 8 23 13 S 1028,4 60 0,0
21.10.2018 12:00:00 11,8 5,5 9 5 14 7 SE 1029,0 60 0,0
21.10.2018 11:00:00 9,1 5,2 7 4 13 7 ESE 1029,5 60 0,0
21.10.2018 10:00:00 6,4 4,9 7 4 14 7 E 1030,0 60 0,0
21.10.2018 09:00:00 2,7 2,0 5 3 7 4 NE 1030,5 22 0,0
21.10.2018 08:00:00 3,6 2,5 4 2 17 9 NNE 1030,2 0 0,0
21.10.2018 07:00:00 4,4 3,1 7 4 14 8 ENE 1030,3 0 0,0
21.10.2018 06:00:00 2,5 1,9 9 5 11 6 NE 1030,7 0 0,0
21.10.2018 05:00:00 3,2 2,5 6 3 10 6 NE 1030,5 0 0,0
21.10.2018 04:00:00 3,7 2,9 7 4 10 6 ENE 1030,8 0 0,0
21.10.2018 03:00:00 4,9 3,8 4 2 13 7 NE 1031,0 0 0,0
21.10.2018 02:00:00 5,2 3,8 11 6 15 8 NE 1031,2 0 0,0
21.10.2018 01:00:00 5,1 3,9 10 5 16 9 NE 1031,3 0 0,0
21.10.2018 00:00:00 6,5 4,9 6 4 14 8 NE 1031,3 0 0,0
20.10.2018 23:00:00 8,3 6,0 9 5 15 8 E 1031,0 0 0,0
20.10.2018 22:00:00 8,5 6,5 9 5 18 10 NE 1031,0 0 0,0
20.10.2018 21:00:00 8,9 6,5 10 5 16 9 NNE 1030,8 0 0,0
20.10.2018 20:00:00 9,8 6,2 7 4 12 6 NNE 1030,3 0 0,0
20.10.2018 19:00:00 11,3 8,2 8 4 9 5 NNE 1030,0 17 0,0
20.10.2018 18:00:00 14,7 7,3 5 3 8 5 E 1029,2 60 0,0
20.10.2018 17:00:00 15,6 5,9 5 3 11 6 ESE 1028,7 60 0,0
20.10.2018 16:00:00 15,4 6,0 8 4 18 10 ESE 1029,2 57 0,0
20.10.2018 15:00:00 15,0 5,9 11 6 21 12 E 1029,8 60 0,0
20.10.2018 14:00:00 14,7 6,0 11 6 24 13 ESE 1030,1 60 0,0
20.10.2018 13:00:00 13,9 7,2 13 7 23 13 E 1030,8 60 0,0
20.10.2018 12:00:00 12,4 7,6 11 6 22 12 E 1030,8 60 0,0
20.10.2018 11:00:00 11,0 7,8 7 4 16 9 E 1030,5 60 0,0
20.10.2018 10:00:00 8,4 6,7 10 5 18 10 NE 1030,3 60 0,0
20.10.2018 09:00:00 5,7 5,0 9 5 13 7 NNE 1030,6 9 0,0
20.10.2018 08:00:00 4,7 4,0 11 6 10 6 NNE 1030,1 0 0,0
20.10.2018 07:00:00 6,2 5,3 4 2 9 5 NNE 1029,1 0 0,0
20.10.2018 06:00:00 7,2 6,2 9 5 13 7 NNE 1028,7 0 0,0
20.10.2018 05:00:00 7,5 6,5 8 4 12 7 NNE 1028,1 0 0,0
20.10.2018 04:00:00 8,7 7,1 7 4 16 9 N 1027,5 0 0,0
20.10.2018 03:00:00 9,2 7,7 11 6 16 8 NNE 1027,4 0 0,0
20.10.2018 02:00:00 8,0 6,8 7 4 13 7 NNE 1027,2 0 0,0
20.10.2018 01:00:00 9,0 7,5 11 6 19 10 NNE 1027,0 0 0,0
20.10.2018 00:00:00 9,6 7,9 9 5 14 8 NE 1026,3 0 0,0
19.10.2018 23:00:00 10,2 8,3 8 4 14 8 NE 1025,9 0 0,0
19.10.2018 22:00:00 10,6 8,5 9 5 16 9 NE 1025,7 0 0,0
19.10.2018 21:00:00 9,8 8,4 10 5 14 8 NNE 1025,3 0 0,0
19.10.2018 20:00:00 10,3 8,6 11 6 13 7 NNE 1024,7 0 0,0
19.10.2018 19:00:00 13,0 9,9 6 3 9 5 NE 1023,2 17 0,0
19.10.2018 18:00:00 17,0 9,0 8 4 11 6 SE 1022,2 60 0,0
19.10.2018 17:00:00 17,6 9,2 7 4 15 8 ESE 1022,1 60 0,0
19.10.2018 16:00:00 17,4 9,3 7 4 18 10 E 1022,1 60 0,0
19.10.2018 15:00:00 17,6 9,4 9 5 16 9 E 1022,3 60 0,0
19.10.2018 14:00:00 16,5 9,5 11 6 16 9 E 1022,8 60 0,0
19.10.2018 13:00:00 15,7 9,5 9 5 17 9 ESE 1023,4 60 0,0
19.10.2018 12:00:00 13,9 9,3 9 5 16 9 E 1023,8 60 0,0
19.10.2018 11:00:00 11,6 8,4 11 6 17 9 E 1023,9 60 0,0
19.10.2018 10:00:00 10,1 7,7 8 4 16 9 E 1024,1 60 0,0
19.10.2018 09:00:00 9,3 7,3 9 5 16 8 E 1023,6 11 0,0
19.10.2018 08:00:00 9,0 7,1 11 6 16 8 ENE 1023,4 0 0,0
19.10.2018 07:00:00 9,2 7,2 10 5 17 9 ENE 1023,1 0 0,0
19.10.2018 06:00:00 9,5 7,3 10 5 23 12 E 1023,0 0 0,0
19.10.2018 05:00:00 9,7 7,6 13 7 18 10 ENE 1023,3 0 0,0
19.10.2018 04:00:00 10,0 7,7 8 4 18 10 ENE 1023,1 0 0,0
19.10.2018 03:00:00 10,1 7,9 10 5 17 9 E 1023,0 0 0,0
19.10.2018 02:00:00 9,5 7,7 7 4 16 8 ENE 1023,6 0 0,0
19.10.2018 01:00:00 9,8 8,1 5 3 16 9 E 1023,7 0 0,0
19.10.2018 00:00:00 9,6 8,0 10 5 14 8 NNE 1023,5 0 0,0
18.10.2018 23:00:00 10,4 8,3 6 3 12 6 ENE 1023,3 0 0,0
18.10.2018 22:00:00 11,6 8,9 8 4 16 9 ENE 1022,8 0 0,0
18.10.2018 21:00:00 12,2 9,4 12 6 20 11 ENE 1022,7 0 0,0
18.10.2018 20:00:00 13,3 9,8 11 6 17 9 ENE 1022,4 0 0,0
18.10.2018 19:00:00 14,3 10,2 12 6 34 19 E 1021,9 5 0,0
18.10.2018 18:00:00 16,0 10,4 16 9 35 19 E 1021,1 60 0,0
18.10.2018 17:00:00 17,7 11,2 17 9 29 16 ENE 1020,9 34 0,0
18.10.2018 16:00:00 19,5 11,1 16 9 25 14 ENE 1020,2 60 0,0
18.10.2018 15:00:00 19,6 11,7 11 6 25 14 E 1020,4 - -
18.10.2018 14:00:00 18,3 11,6 11 6 - - E 1021,0 - -
18.10.2018 13:00:00 17,4 11,2 14 8 25 14 SE 1021,5 - -
18.10.2018 12:00:00 15,8 11,5 14 8 25 14 E 1022,1 - -
18.10.2018 11:00:00 14,5 11,7 13 7 21 11 E 1022,2 10 0,0
18.10.2018 10:00:00 13,4 11,3 9 5 23 12 E 1022,1 0 0,0
18.10.2018 09:00:00 12,5 11,0 9 5 22 12 E 1021,9 0 0,0
18.10.2018 08:00:00 11,5 10,3 14 8 30 16 NE 1021,7 0 0,0
18.10.2018 07:00:00 10,5 9,3 9 5 17 9 NNE 1021,3 0 0,0
18.10.2018 06:00:00 10,7 9,7 8 4 11 6 NNE 1020,8 0 0,0
18.10.2018 05:00:00 11,0 9,7 8 4 11 6 NE 1020,6 0 0,0
18.10.2018 04:00:00 10,9 9,6 9 5 12 7 NE 1020,6 0 0,0
18.10.2018 03:00:00 10,8 9,3 9 5 12 6 NE 1020,5 0 0,0
18.10.2018 02:00:00 10,3 9,1 7 4 11 6 NNE 1020,7 0 0,0
18.10.2018 01:00:00 12,1 9,9 9 5 15 8 NNE 1020,5 0 0,0
18.10.2018 00:00:00 13,8 10,3 11 6 18 10 NE 1020,3 0 0,0
17.10.2018 23:00:00 13,4 10,2 11 6 17 9 NE 1020,2 0 0,0
17.10.2018 22:00:00 13,2 9,8 11 6 18 10 NNE 1020,1 0 0,0
17.10.2018 21:00:00 13,8 10,0 12 6 17 9 NNE 1019,4 0 0,0
17.10.2018 20:00:00 12,4 10,3 7 4 10 6 N 1018,9 0 0,0
17.10.2018 19:00:00 15,3 11,9 8 4 10 5 NE 1018,3 11 0,0
17.10.2018 18:00:00 19,3 10,2 6 3 9 5 ENE 1017,5 60 0,0
17.10.2018 17:00:00 22,2 8,1 6 4 13 7 SSE 1017,1 60 0,0
17.10.2018 16:00:00 22,1 8,7 6 3 12 7 SSE 1017,4 60 0,0
17.10.2018 15:00:00 21,2 9,3 5 3 12 6 E 1017,6 60 0,0
17.10.2018 14:00:00 20,6 9,5 7 4 14 8 SE 1018,1 60 0,0
17.10.2018 13:00:00 19,5 10,3 4 2 13 7 SSE 1018,8 60 0,0
17.10.2018 12:00:00 17,1 10,5 5 3 10 5 E 1019,5 60 0,0
17.10.2018 11:00:00 13,9 10,9 7 4 - - NNE 1019,7 - -
17.10.2018 10:00:00 8,5 7,6 8 4 9 5 N 1020,5 35 0,0
17.10.2018 09:00:00 6,5 5,8 5 3 9 5 NNE 1020,7 1 0,0
17.10.2018 08:00:00 6,6 5,8 7 4 - - NNE 1020,5 - -
17.10.2018 07:00:00 7,0 6,3 11 6 14 8 N 1020,4 - -
17.10.2018 06:00:00 6,4 5,7 9 5 11 6 N 1020,0 0 0,0
17.10.2018 05:00:00 6,5 5,6 7 4 - - NNE 1020,2 - -
17.10.2018 04:00:00 6,6 5,9 5 3 12 7 N 1020,5 0 0,0
17.10.2018 03:00:00 7,1 6,2 11 6 14 8 NNE 1020,6 - -
17.10.2018 02:00:00 7,8 7,0 11 6 12 6 NNE 1020,6 0 0,0
17.10.2018 01:00:00 8,2 7,3 8 4 11 6 NE 1020,9 0 0,0
17.10.2018 00:00:00 8,8 7,9 10 5 12 7 N 1021,1 0 0,0
16.10.2018 23:00:00 9,4 8,3 11 6 - - N 1020,7 - -
16.10.2018 22:00:00 10,1 8,7 10 5 11 6 N 1020,6 0 0,0
16.10.2018 21:00:00 11,4 9,5 8 4 11 6 NE 1020,1 0 0,0
16.10.2018 20:00:00 13,7 10,2 7 4 - - NNE 1019,5 - -
16.10.2018 19:00:00 16,2 10,5 4 2 11 6 ENE 1018,8 - -
16.10.2018 18:00:00 21,9 8,7 6 4 15 8 SE 1017,9 60 0,0
16.10.2018 17:00:00 22,6 8,0 11 6 - - SSE 1018,0 - -
16.10.2018 16:00:00 22,3 7,7 13 7 22 12 S 1018,1 37 0,0
16.10.2018 15:00:00 21,9 9,1 7 4 14 8 S 1018,2 - -
16.10.2018 14:00:00 21,9 7,6 14 8 21 12 SSE 1018,2 55 0,0
16.10.2018 13:00:00 20,8 8,2 11 6 16 9 SE 1018,4 57 0,0
16.10.2018 12:00:00 18,4 9,8 5 3 17 9 ESE 1019,0 51 0,0
16.10.2018 11:00:00 15,8 11,3 4 2 - - ESE 1018,9 - -
16.10.2018 10:00:00 11,2 9,3 7 4 7 4 NE 1019,6 - -
16.10.2018 09:00:00 6,9 6,1 4 2 10 5 NNW 1019,8 34 0,0
16.10.2018 08:00:00 5,5 4,8 7 4 10 5 NNE 1019,7 0 0,0
16.10.2018 07:00:00 5,9 5,1 6 4 8 5 N 1019,1 0 0,0
16.10.2018 06:00:00 5,7 4,9 7 4 11 6 NNE 1019,1 0 0,0
16.10.2018 05:00:00 6,6 5,7 8 4 11 6 NNE 1019,2 0 0,0
16.10.2018 04:00:00 8,5 6,9 11 6 15 8 N 1018,7 0 0,0
16.10.2018 03:00:00 7,8 6,7 11 6 15 8 N 1018,2 0 0,0
16.10.2018 02:00:00 8,1 7,0 11 6 15 8 N 1018,1 0 0,0
16.10.2018 01:00:00 9,6 7,7 13 7 16 8 N 1017,4 0 0,0
16.10.2018 00:00:00 9,1 7,9 11 6 13 7 N 1017,2 0 0,0
15.10.2018 23:00:00 9,9 8,5 9 5 12 6 N 1016,8 0 0,0
15.10.2018 22:00:00 10,7 9,0 8 4 10 6 N 1016,3 0 0,0
15.10.2018 21:00:00 11,3 9,1 8 4 10 5 N 1016,2 0 0,0
15.10.2018 20:00:00 12,9 10,1 11 6 10 6 NNE 1015,4 0 0,0
15.10.2018 19:00:00 16,3 11,3 8 4 9 5 NE 1014,6 20 0,0
15.10.2018 18:00:00 20,0 10,3 4 2 4 2 NNE 1013,4 60 0,0
15.10.2018 17:00:00 21,4 8,5 4 2 11 6 NNE 1012,9 60 0,0

tt = Température de l'air
td = dewpoint
ff = Vitesse du vent
fx = gusts
dd = Direction du vent
ppp = reduced air pressure
sd = Ensoleillement
rr = Quantités de précipitations

stations d'obs. à proximité